Latest Weather Observations for Perth

IDW60901

Issued at 8:51 am WST Tuesday 23 October 2018 (issued every 10 minutes, with the page automatically refreshed every 10 minutes)

About weather observations | Map of Perth area stations | Latest observations for Perth area | Other Formats
Station Details ID: 009225 Name: PERTH METRO Lat: -31.92 Lon: 115.87 Height: 24.9 m
Data from the previous 72 hours. | See also: Recent months at Perth
Date/Time
WST
Temp
°C
App
Temp
°C
Dew
Point
°C
Rel
Hum
%
Delta-T
°C
Wind Press
QNH
hPa
Press
MSL
hPa
Rain since
9am
mm
Dir  Spd
km/h
Gust
km/h
Spd
kts
Gust
kts
23/08:30am 15.6 13.2 8.6 63 3.6 ENE 11 19 6 10 1019.7 1019.6 0.0
23/08:00am 14.1 12.0 8.3 68 2.9 E 9 13 5 7 1019.8 1019.7 0.0
23/07:30am 13.1 10.5 7.8 70 2.6 ENE 11 19 6 10 1020.1 1020.0 0.0
23/07:00am 12.4 10.8 7.9 74 2.2 ENE 6 11 3 6 1020.1 1020.0 0.0
23/06:30am 11.3 10.2 8.3 82 1.5 SSE 4 11 2 6 1020.0 1019.9 0.0
23/06:00am 9.6 9.3 8.7 94 0.4 CALM 0 2 0 1 1019.8 1019.7 0.0
23/05:30am 9.0 8.6 8.1 94 0.4 CALM 0 0 0 0 1019.6 1019.5 0.0
23/05:00am 9.1 8.6 8.0 93 0.5 CALM 0 0 0 0 1019.4 1019.3 0.0
23/04:30am 9.1 8.7 8.2 94 0.4 CALM 0 0 0 0 1019.3 1019.2 0.0
23/04:00am 8.8 8.3 8.0 95 0.4 CALM 0 0 0 0 1019.4 1019.3 0.0
23/03:30am 8.3 7.7 7.4 94 0.4 CALM 0 0 0 0 1019.4 1019.3 0.0
23/03:00am 8.3 7.7 7.2 93 0.5 CALM 0 0 0 0 1019.5 1019.4 0.0
23/02:30am 8.8 8.2 7.6 92 0.6 CALM 0 0 0 0 1019.6 1019.5 0.0
23/02:00am 8.9 8.3 7.2 89 0.8 CALM 0 0 0 0 1019.5 1019.4 0.0
23/01:30am 9.6 9.1 7.7 88 0.9 CALM 0 0 0 0 1019.8 1019.7 0.0
23/01:00am 9.8 9.2 7.6 86 1.0 CALM 0 0 0 0 1020.1 1020.0 0.0
23/12:30am 10.6 10.0 7.5 81 1.5 CALM 0 0 0 0 1020.4 1020.3 0.0
23/12:00am 12.0 10.3 7.7 75 2.1 S 6 9 3 5 1020.5 1020.4 0.0
 
Date/Time
WST
Temp
°C
App
Temp
°C
Dew
Point
°C
Rel
Hum
%
Delta-T
°C
Wind Press
QNH
hPa
Press
MSL
hPa
Rain since
9am
mm
Dir  Spd
km/h
Gust
km/h
Spd
kts
Gust
kts
22/11:30pm 12.4 10.5 7.7 73 2.3 S 7 11 4 6 1020.6 1020.5 0.0
22/11:00pm 12.7 10.9 8.0 73 2.3 S 7 11 4 6 1020.9 1020.8 0.0
22/10:30pm 13.2 11.1 8.1 71 2.5 SSE 9 17 5 9 1021.2 1021.1 0.0
22/10:00pm 13.5 11.4 8.1 70 2.7 S 9 13 5 7 1021.4 1021.3 0.0
22/09:30pm 13.8 12.0 8.0 68 2.9 S 7 13 4 7 1021.4 1021.3 0.0
22/09:00pm 14.2 12.1 8.2 67 3.0 S 9 20 5 11 1021.2 1021.1 0.0
22/08:30pm 14.6 12.0 7.9 64 3.3 S 11 24 6 13 1021.2 1021.1 0.0
22/08:00pm 14.8 12.5 7.6 62 3.6 SSW 9 20 5 11 1021.2 1021.1 0.0
22/07:30pm 15.0 12.4 7.8 62 3.6 SSW 11 20 6 11 1021.1 1021.0 0.0
22/07:00pm 15.2 12.4 8.4 64 3.4 SW 13 20 7 11 1020.9 1020.8 0.0
22/06:30pm 15.4 12.6 8.6 64 3.5 SW 13 19 7 10 1020.7 1020.6 0.0
22/06:00pm 15.9 13.2 9.1 64 3.5 SW 13 22 7 12 1020.5 1020.4 0.0
22/05:30pm 16.6 13.4 8.6 59 4.1 SSW 15 26 8 14 1020.2 1020.1 0.0
22/05:00pm 17.7 14.5 8.3 54 4.8 SSW 15 26 8 14 1020.1 1020.0 0.0
22/04:30pm 18.5 15.7 8.7 53 5.1 SW 13 20 7 11 1019.9 1019.8 0.0
22/04:00pm 19.0 16.0 9.2 53 5.1 SW 15 22 8 12 1019.7 1019.6 0.0
22/03:30pm 19.4 16.6 8.4 49 5.7 SW 13 20 7 11 1019.7 1019.6 0.0
22/03:00pm 19.5 16.4 8.8 50 5.6 SW 15 28 8 15 1019.8 1019.7 0.0
22/02:30pm 18.6 15.2 7.7 49 5.6 SSW 15 24 8 13 1020.0 1019.9 0.0
22/02:00pm 19.1 16.2 9.6 54 5.0 SSW 15 26 8 14 1020.2 1020.1 0.0
22/01:30pm 18.7 15.6 7.2 47 5.8 WSW 13 20 7 11 1020.6 1020.5 0.0
22/01:00pm 18.1 15.2 9.5 57 4.5 WSW 15 26 8 14 1020.6 1020.5 0.0
22/12:30pm 18.5 15.2 8.2 51 5.3 WSW 15 30 8 16 1020.6 1020.5 0.0
22/12:00pm 17.3 13.8 8.7 57 4.4 SW 17 28 9 15 1020.6 1020.5 0.0
22/11:30am 17.3 14.4 9.7 61 4.0 WSW 15 24 8 13 1020.9 1020.8 0.0
22/11:00am 16.4 13.2 10.0 66 3.4 WSW 17 28 9 15 1021.1 1021.0 0.0
22/10:30am 16.7 15.0 9.9 64 3.6 WNW 9 19 5 10 1021.1 1021.0 0.0
22/10:00am 16.3 14.2 9.9 66 3.3 SSW 11 17 6 9 1021.2 1021.1 0.0
22/09:30am 15.2 12.1 10.2 72 2.6 SW 17 28 9 15 1021.3 1021.2 0.0
22/09:00am 17.4 13.7 6.3 48 5.4 WSW 15 24 8 13 1020.8 1020.7 1.4
22/08:30am 17.4 13.7 6.3 48 5.5 WSW 15 24 8 13 1020.6 1020.5 1.4
22/08:00am 16.8 14.3 6.6 51 5.0 SSW 9 24 5 13 1020.4 1020.3 1.4
22/07:30am 16.0 13.6 8.5 61 3.8 SW 11 19 6 10 1020.2 1020.1 1.4
22/07:00am 15.7 14.1 8.0 60 3.9 WSW 6 9 3 5 1019.9 1019.8 1.4
22/06:30am 15.4 12.9 6.4 55 4.4 WSW 9 13 5 7 1019.6 1019.5 1.4
22/06:00am 15.1 12.8 5.6 53 4.5 SW 7 15 4 8 1019.3 1019.2 1.4
22/05:30am 15.2 11.6 5.1 51 4.8 SW 13 26 7 14 1019.0 1018.9 1.4
22/05:00am 15.3 12.0 6.3 55 4.3 SW 13 22 7 12 1019.0 1018.9 1.4
22/04:30am 15.4 12.6 6.9 57 4.2 SW 11 19 6 10 1018.7 1018.6 1.4
22/04:00am 15.4 13.0 7.2 58 4.0 SW 9 17 5 9 1018.5 1018.4 1.4
22/03:30am 15.4 13.0 7.2 58 4.0 SW 9 17 5 9 1018.3 1018.2 1.4
22/03:00am 15.4 12.9 6.7 56 4.2 SW 9 15 5 8 1018.2 1018.1 1.4
22/02:30am 15.4 12.1 6.4 55 4.4 SW 13 17 7 9 1018.1 1018.0 1.4
22/02:00am 15.4 12.5 6.7 56 4.2 SW 11 24 6 13 1017.9 1017.8 1.4
22/01:30am 15.6 13.5 8.4 62 3.6 SW 9 15 5 8 1018.0 1017.9 1.4
22/01:00am 15.7 13.5 7.7 59 4.0 SW 9 15 5 8 1018.1 1018.0 1.4
22/12:30am 15.9 13.3 6.3 53 4.7 WSW 9 15 5 8 1018.3 1018.2 1.4
22/12:00am 16.0 13.5 6.7 54 4.6 SW 9 24 5 13 1018.5 1018.4 1.4
 
Date/Time
WST
Temp
°C
App
Temp
°C
Dew
Point
°C
Rel
Hum
%
Delta-T
°C
Wind Press
QNH
hPa
Press
MSL
hPa
Rain since
9am
mm
Dir  Spd
km/h
Gust
km/h
Spd
kts
Gust
kts
21/11:30pm 16.0 13.5 8.0 59 4.0 SW 11 17 6 9 1018.5 1018.4 1.4
21/11:00pm 15.9 14.2 7.4 57 4.2 SW 6 9 3 5 1018.5 1018.4 1.4
21/10:30pm 15.9 13.9 6.9 55 4.4 SW 7 11 4 6 1018.8 1018.7 1.4
21/10:00pm 15.9 13.0 6.6 54 4.5 WSW 11 17 6 9 1018.8 1018.7 1.4
21/09:30pm 15.8 12.5 6.5 54 4.5 SW 13 26 7 14 1018.9 1018.8 1.4
21/09:00pm 15.6 13.0 7.9 60 3.9 SW 11 20 6 11 1018.9 1018.8 1.4
21/08:30pm 15.7 12.8 8.0 60 3.9 SW 13 24 7 13 1018.8 1018.7 1.4
21/08:00pm 15.7 12.9 8.7 63 3.6 SW 13 26 7 14 1018.5 1018.4 1.4
21/07:30pm 15.9 12.9 9.3 65 3.4 SW 15 22 8 12 1018.1 1018.0 1.4
21/07:00pm 16.0 13.2 10.1 68 3.1 SW 15 24 8 13 1017.8 1017.7 1.4
21/06:30pm 16.6 13.6 10.7 68 3.1 SW 17 28 9 15 1017.5 1017.4 1.4
21/06:00pm 17.0 14.0 10.8 67 3.3 WSW 17 32 9 17 1017.2 1017.1 1.4
21/05:30pm 17.7 14.9 11.3 66 3.5 WSW 17 39 9 21 1017.0 1016.9 1.4
21/05:00pm 18.1 15.2 12.3 69 3.2 SW 19 35 10 19 1016.7 1016.6 1.4
21/04:30pm 19.3 16.7 12.1 63 4.0 WSW 17 33 9 18 1016.6 1016.5 1.4
21/04:00pm 19.7 18.2 14.3 71 3.1 WSW 15 24 8 13 1016.3 1016.2 1.4
21/03:30pm 18.8 16.1 12.8 68 3.4 WSW 19 32 10 17 1016.3 1016.2 1.2
21/03:00pm 19.6 17.6 13.8 69 3.3 WSW 17 33 9 18 1016.1 1016.0 1.2
21/02:30pm 17.8 15.6 14.3 80 2.0 WSW 19 37 10 20 1016.4 1016.3 1.2
21/02:00pm 18.0 17.0 15.6 86 1.4 WSW 15 28 8 15 1016.4 1016.3 1.0
21/01:30pm 20.5 18.4 13.5 64 4.0 W 17 32 9 17 1016.4 1016.3 0.4
21/01:00pm 21.2 19.2 13.9 63 4.2 W 17 30 9 16 1016.3 1016.2 0.4
21/12:30pm 20.2 17.7 13.6 66 3.8 W 19 37 10 20 1016.6 1016.5 0.4
21/12:00pm 20.0 17.5 13.5 66 3.7 W 19 30 10 16 1016.8 1016.7 0.4
21/11:30am 19.2 17.4 14.5 74 2.7 WNW 17 30 9 16 1016.8 1016.7 0.4
21/11:00am 18.9 17.1 14.4 75 2.6 W 17 32 9 17 1017.0 1016.9 0.4
21/10:30am 16.9 14.7 14.4 85 1.4 W 19 35 10 19 1017.1 1017.0 0.2
21/10:00am 18.7 16.6 13.6 72 2.9 W 17 37 9 20 1017.0 1016.9 0.0
21/09:30am 19.1 16.5 12.1 64 3.9 WNW 17 32 9 17 1016.8 1016.7 0.0
21/09:00am 18.6 16.1 12.4 67 3.4 WNW 17 35 9 19 1016.9 1016.8 0.0
21/08:30am 19.2 17.5 12.5 65 3.8 WNW 13 24 7 13 1016.5 1016.4 0.0
21/08:00am 17.7 15.4 11.9 69 3.2 WNW 15 30 8 16 1016.5 1016.4 0.0
21/07:30am 18.0 15.5 10.9 63 3.8 W 15 33 8 18 1016.6 1016.5 0.0
21/07:00am 17.2 15.4 10.8 66 3.4 WNW 11 22 6 12 1016.4 1016.3 0.0
21/06:30am 17.3 15.1 10.7 65 3.5 WNW 13 28 7 15 1016.3 1016.2 0.0
21/06:00am 16.6 14.7 10.5 67 3.2 WNW 11 17 6 9 1016.1 1016.0 0.0
21/05:30am 16.4 14.6 10.7 69 3.0 WNW 11 24 6 13 1015.6 1015.5 0.0
21/05:00am 16.1 14.9 11.7 75 2.4 NW 9 15 5 8 1015.3 1015.2 0.0
21/04:30am 16.1 13.8 10.6 70 2.9 W 13 24 7 13 1015.7 1015.6 0.0
21/04:00am 16.8 15.3 10.4 66 3.4 WNW 9 20 5 11 1015.5 1015.4 0.0
21/03:30am 16.8 14.7 9.7 63 3.7 WNW 11 24 6 13 1015.5 1015.4 0.0
21/03:00am 16.8 14.8 8.5 58 4.2 W 9 20 5 11 1015.5 1015.4 0.0
21/02:30am 16.6 14.6 10.2 66 3.4 WNW 11 19 6 10 1015.4 1015.3 0.0
21/02:00am 16.3 14.7 11.5 73 2.6 WNW 11 20 6 11 1015.4 1015.3 0.0
21/01:30am 16.4 14.0 10.0 66 3.4 WNW 13 19 7 10 1015.7 1015.6 0.0
21/01:00am 16.4 14.2 10.9 70 2.9 WNW 13 30 7 16 1016.0 1015.9 0.0
21/12:30am 16.6 15.0 10.2 66 3.4 WNW 9 20 5 11 1016.3 1016.2 0.0
21/12:00am 15.8 15.0 11.2 74 2.5 W 6 9 3 5 1016.8 1016.7 0.0
 
Date/Time
WST
Temp
°C
App
Temp
°C
Dew
Point
°C
Rel
Hum
%
Delta-T
°C
Wind Press
QNH
hPa
Press
MSL
hPa
Rain since
9am
mm
Dir  Spd
km/h
Gust
km/h
Spd
kts
Gust
kts
20/11:30pm 16.2 15.0 10.3 68 3.1 WNW 7 19 4 10 1017.0 1016.9 0.0
20/11:00pm 15.9 14.6 11.1 73 2.6 W 9 28 5 15 1017.3 1017.2 0.0
20/10:30pm 15.4 13.8 11.4 77 2.1 W 11 22 6 12 1017.7 1017.6 0.0
20/10:00pm 15.2 14.4 11.0 76 2.2 W 6 11 3 6 1018.0 1017.9 0.0
20/09:30pm 15.7 13.8 11.7 77 2.2 W 13 28 7 15 1018.7 1018.6 0.0
20/09:00pm 16.2 15.0 10.3 68 3.1 W 7 13 4 7 1018.7 1018.6 0.0
20/08:30pm 16.4 14.9 11.8 74 2.5 W 11 19 6 10 1018.6 1018.5 0.0
20/08:00pm 16.2 15.5 12.0 76 2.3 WNW 7 13 4 7 1018.3 1018.2 0.0
20/07:30pm 16.0 15.4 11.6 75 2.4 WNW 6 11 3 6 1018.4 1018.3 0.0
20/07:00pm 16.0 14.4 11.4 74 2.5 NW 11 20 6 11 1018.1 1018.0 0.0
20/06:30pm 15.9 15.5 12.5 80 1.9 WSW 6 9 3 5 1017.9 1017.8 0.0
20/06:00pm 16.1 14.4 12.5 79 2.0 WSW 13 24 7 13 1018.0 1017.9 0.0
20/05:30pm 17.7 15.6 11.3 66 3.5 WNW 13 24 7 13 1017.9 1017.8 0.0
20/05:00pm 18.1 15.7 10.2 60 4.2 WNW 13 22 7 12 1017.9 1017.8 0.0
20/04:30pm 18.5 16.2 10.6 60 4.3 WNW 13 22 7 12 1017.7 1017.6 0.0
20/04:00pm 18.7 16.4 10.5 59 4.4 WNW 13 22 7 12 1017.7 1017.6 0.0
20/03:30pm 18.3 16.2 11.1 63 3.9 WNW 13 20 7 11 1017.7 1017.6 0.0
20/03:00pm 18.4 16.8 11.5 64 3.8 WNW 11 20 6 11 1017.7 1017.6 0.0
20/02:30pm 19.0 16.2 10.0 56 4.8 NW 15 24 8 13 1017.9 1017.8 0.0
20/02:00pm 17.3 15.6 12.6 74 2.6 W 13 28 7 15 1018.5 1018.4 0.0
20/01:30pm 19.6 17.4 10.9 57 4.7 W 13 24 7 13 1018.5 1018.4 0.0
20/01:00pm 18.3 16.6 11.1 63 3.9 NW 11 24 6 13 1018.7 1018.6 0.0
20/12:30pm 18.0 16.1 10.6 62 4.0 W 11 19 6 10 1019.1 1019.0 0.0
20/12:00pm 18.3 15.9 9.9 58 4.4 NW 13 24 7 13 1019.2 1019.1 0.0
20/11:30am 17.9 15.5 10.0 60 4.2 WNW 13 20 7 11 1019.5 1019.4 0.0
20/11:00am 18.6 16.7 10.4 59 4.4 NNW 11 19 6 10 1019.8 1019.7 0.0
20/10:30am 18.2 16.1 9.8 58 4.4 NW 11 22 6 12 1020.2 1020.1 0.0
20/10:00am 18.3 15.9 8.8 54 4.9 NNW 11 19 6 10 1020.5 1020.4 0.0
20/09:30am 17.7 14.7 7.7 52 5.1 WNW 13 22 7 12 1020.6 1020.5 0.0
20/09:00am 17.9 15.6 9.0 56 4.6 NNW 11 22 6 12 1020.7 1020.6 0.0

Latest Capital City Observations: Canberra | Sydney | Melbourne | Brisbane | Adelaide | Perth | Hobart | Darwin

Other Formats:

Comma delimited format used in spreadsheet applications
http://www.bom.gov.au/fwo/IDW60901/IDW60901.94608.axf

JavaScript Object Notation format (JSON) in row-major order
http://www.bom.gov.au/fwo/IDW60901/IDW60901.94608.json